createdAt,value
2023-05-01T00:07:18.712Z,17.77
2023-05-01T00:12:26.752Z,17.77
2023-05-01T00:17:37.869Z,17.75
2023-05-01T00:22:45.143Z,17.75
2023-05-01T00:27:47.421Z,17.71
2023-05-01T00:32:53.552Z,17.71
2023-05-01T00:37:55.317Z,17.71
2023-05-01T00:43:03.018Z,17.69
2023-05-01T00:48:12.826Z,17.70
2023-05-01T00:53:20.445Z,17.67
2023-05-01T00:58:40.252Z,17.67
2023-05-01T01:03:42.113Z,17.66
2023-05-01T01:09:00.009Z,17.64
2023-05-01T01:14:15.455Z,17.63
2023-05-01T01:19:42.356Z,17.61
2023-05-01T01:25:22.519Z,17.58
2023-05-01T01:30:39.828Z,17.58
2023-05-01T01:35:44.234Z,17.57
2023-05-01T01:41:10.470Z,17.56
2023-05-01T01:51:28.082Z,17.56
2023-05-01T02:02:17.394Z,17.54
2023-05-01T02:07:22.057Z,17.54
2023-05-01T02:23:31.930Z,17.52
2023-05-01T02:28:38.980Z,17.51
2023-05-01T02:33:42.156Z,17.51
2023-05-01T02:38:53.964Z,17.49
2023-05-01T02:44:01.392Z,17.49
2023-05-01T02:49:04.448Z,17.48
2023-05-01T02:54:15.888Z,17.48
2023-05-01T02:59:18.451Z,17.46
2023-05-01T03:04:21.166Z,17.45
2023-05-01T03:09:26.029Z,17.45
2023-05-01T03:14:30.968Z,17.42
2023-05-01T03:19:32.812Z,17.41
2023-05-01T03:24:34.703Z,17.39
2023-05-01T03:34:58.186Z,17.38
2023-05-01T03:40:00.415Z,17.37
2023-05-01T03:45:02.232Z,17.36
2023-05-01T03:50:07.206Z,17.35
2023-05-01T03:55:09.799Z,17.35
2023-05-01T04:00:20.124Z,17.32
2023-05-01T04:05:24.012Z,17.31
2023-05-01T04:10:29.337Z,17.30
2023-05-01T04:15:34.335Z,17.30
2023-05-01T04:20:51.250Z,17.28
2023-05-01T04:26:01.636Z,17.28
2023-05-01T04:31:07.419Z,17.27
2023-05-01T04:36:18.881Z,17.26
2023-05-01T04:41:29.900Z,17.23
2023-05-01T04:46:35.390Z,17.23
2023-05-01T04:51:38.879Z,17.22
2023-05-01T04:56:42.735Z,17.22
2023-05-01T05:01:47.822Z,17.21
2023-05-01T05:06:49.747Z,17.18
2023-05-01T05:17:15.798Z,17.16
2023-05-01T05:22:20.502Z,17.15
2023-05-01T05:27:25.777Z,17.15
2023-05-01T05:32:31.455Z,17.14
2023-05-01T05:37:39.240Z,17.12
2023-05-01T05:42:51.223Z,17.12
2023-05-01T05:47:57.783Z,17.11
2023-05-01T05:53:03.228Z,17.10
2023-05-01T05:58:12.954Z,17.11
2023-05-01T06:03:17.666Z,17.09
2023-05-01T06:08:23.083Z,17.07
2023-05-01T06:13:29.427Z,17.06
2023-05-01T06:18:33.082Z,17.07
2023-05-01T06:23:53.515Z,17.07
2023-05-01T06:35:09.965Z,17.06
2023-05-01T06:40:12.812Z,17.04
2023-05-01T06:45:19.849Z,17.04
2023-05-01T06:50:28.210Z,17.04
2023-05-01T06:55:33.785Z,17.05
2023-05-01T07:00:37.361Z,17.06
2023-05-01T07:05:40.869Z,17.06
2023-05-01T07:10:45.850Z,17.06
2023-05-01T07:15:49.199Z,17.06
2023-05-01T07:21:00.210Z,17.07
2023-05-01T07:26:02.941Z,17.08
2023-05-01T07:31:05.019Z,17.08
2023-05-01T07:36:09.899Z,17.08
2023-05-01T07:41:11.669Z,17.08
2023-05-01T07:46:26.532Z,17.10
2023-05-01T07:51:28.262Z,17.10
2023-05-01T07:56:34.483Z,17.08
2023-05-01T08:01:36.619Z,17.10
2023-05-01T08:06:44.825Z,17.11
2023-05-01T08:11:46.766Z,17.12
2023-05-01T08:16:59.281Z,17.11
2023-05-01T08:22:03.716Z,17.13
2023-05-01T08:27:05.779Z,17.15
2023-05-01T08:32:17.010Z,17.19
2023-05-01T08:38:13.863Z,17.20
2023-05-01T08:44:05.759Z,17.19
2023-05-01T08:49:43.078Z,17.21
2023-05-01T08:54:59.770Z,17.22
2023-05-01T09:00:05.189Z,17.19
2023-05-01T09:05:10.543Z,17.25
2023-05-01T09:10:26.968Z,17.29
2023-05-01T09:15:48.534Z,17.30
2023-05-01T09:20:50.279Z,17.31
2023-05-01T09:26:03.916Z,17.30
2023-05-01T09:31:29.419Z,17.31
2023-05-01T09:36:36.126Z,17.35
2023-05-01T09:41:42.071Z,17.32
2023-05-01T11:38:54.647Z,17.63
2023-05-01T11:44:06.990Z,17.61
2023-05-01T11:49:19.172Z,17.65
2023-05-01T11:54:25.527Z,17.64
2023-05-01T11:59:27.542Z,17.65
2023-05-01T12:04:35.495Z,17.65
2023-05-01T12:09:39.018Z,17.65
2023-05-01T12:14:40.882Z,17.66
2023-05-01T12:25:33.276Z,17.67
2023-05-01T12:41:55.848Z,17.65
2023-05-01T12:47:09.514Z,17.68
2023-05-01T12:52:12.610Z,17.68
2023-05-01T13:03:09.533Z,17.66
2023-05-01T13:08:22.199Z,17.69
2023-05-01T14:21:17.576Z,17.85
2023-05-01T14:26:27.287Z,17.86
2023-05-01T14:31:29.922Z,17.86
2023-05-01T14:36:32.784Z,17.80
2023-05-01T14:41:34.544Z,17.86
2023-05-01T14:46:36.729Z,17.82
2023-05-01T14:51:43.428Z,17.81
2023-05-01T15:02:03.713Z,17.80
2023-05-01T15:07:05.599Z,17.82
2023-05-01T15:12:35.520Z,17.79
2023-05-01T15:17:40.862Z,17.82
2023-05-01T15:28:09.529Z,17.81
2023-05-01T15:33:14.000Z,17.83
2023-05-01T15:38:26.216Z,17.81
2023-05-01T15:43:38.104Z,17.84
2023-05-01T15:48:48.501Z,17.87
2023-05-01T15:53:52.722Z,17.94
2023-05-01T15:58:57.715Z,17.95
2023-05-01T16:04:05.501Z,17.92
2023-05-01T16:09:10.278Z,17.97
2023-05-01T16:14:25.839Z,17.97
2023-05-01T16:19:30.862Z,17.99
2023-05-01T16:36:05.671Z,18.00
2023-05-01T16:41:13.125Z,17.99
2023-05-01T16:46:18.156Z,17.97
2023-05-01T16:51:21.327Z,17.98
2023-05-01T16:56:26.300Z,18.01
2023-05-01T17:01:30.616Z,18.05
2023-05-01T17:06:32.755Z,18.00
2023-05-01T17:11:36.841Z,17.99
2023-05-01T17:40:38.046Z,17.97
2023-05-01T17:45:42.646Z,17.97
2023-05-01T17:50:47.641Z,17.93
2023-05-01T17:55:55.674Z,17.96
2023-05-01T18:01:10.533Z,17.94
2023-05-01T18:06:25.513Z,17.90
2023-05-01T18:11:33.638Z,17.93
2023-05-01T18:16:39.529Z,17.96
2023-05-01T18:22:13.040Z,17.95
2023-05-01T18:27:24.869Z,17.96
2023-05-01T18:33:07.653Z,17.95
2023-05-01T18:38:03.293Z,17.92
2023-05-01T18:43:25.861Z,17.92
2023-05-01T18:48:46.685Z,17.92
2023-05-01T18:54:13.186Z,17.92
2023-05-01T18:59:18.489Z,17.92
2023-05-01T19:04:56.157Z,17.95
2023-05-01T19:10:06.789Z,17.95
2023-05-01T19:15:40.933Z,17.92
2023-05-01T19:20:54.266Z,17.93
2023-05-01T19:26:03.338Z,17.92
2023-05-01T19:31:13.795Z,17.90
2023-05-01T19:36:18.999Z,17.91
2023-05-01T19:41:21.362Z,17.92
2023-05-01T19:46:33.225Z,17.89
2023-05-01T19:51:44.272Z,17.90
2023-05-01T19:56:47.090Z,17.89
2023-05-01T20:01:52.471Z,17.91
2023-05-01T20:06:56.320Z,17.90
2023-05-01T20:12:24.300Z,17.88
2023-05-01T20:17:43.374Z,17.87
2023-05-01T20:23:38.187Z,17.88
2023-05-01T20:29:16.233Z,17.89
2023-05-01T20:34:48.351Z,17.87
2023-05-01T20:40:09.838Z,17.86
2023-05-01T20:45:16.251Z,17.78
2023-05-01T20:50:32.765Z,17.85
2023-05-01T20:55:48.507Z,17.84
2023-05-01T21:01:21.469Z,17.82
2023-05-01T21:06:24.288Z,17.84
2023-05-01T21:11:29.677Z,17.83
2023-05-01T21:17:04.684Z,17.79
2023-05-01T21:22:27.325Z,17.79
2023-05-01T21:27:43.340Z,17.77
2023-05-01T21:38:21.594Z,17.79
2023-05-01T21:43:26.281Z,17.77
2023-05-01T21:49:02.280Z,17.75
2023-05-01T21:54:06.761Z,17.76
2023-05-01T21:59:10.487Z,17.73
2023-05-01T22:04:39.195Z,17.70
2023-05-01T22:09:54.075Z,17.73
2023-05-01T22:15:02.966Z,17.71
2023-05-01T22:20:15.262Z,17.69
2023-05-01T22:25:21.638Z,17.69
2023-05-01T22:30:31.479Z,17.68
2023-05-01T22:35:39.440Z,17.68
2023-05-01T22:46:34.234Z,17.65
2023-05-01T22:51:51.514Z,17.65
2023-05-01T23:03:25.517Z,17.62
2023-05-01T23:09:20.886Z,17.63
2023-05-01T23:20:37.770Z,17.63
2023-05-01T23:26:28.403Z,17.63
2023-05-01T23:31:47.384Z,17.61
2023-05-01T23:42:43.936Z,17.61
2023-05-01T23:48:04.447Z,17.60
2023-05-01T23:53:15.252Z,17.57
2023-05-01T23:58:38.810Z,17.57
